sensor_id;sensor_type;location;lat;lon;timestamp;pressure;altitude;pressure_sealevel;temperature;humidity
11682;BME280;5897;42.640;23.310;2022-12-07T00:01:18;93880.28;;;7.60;93.74
11682;BME280;5897;42.640;23.310;2022-12-07T00:03:47;93878.13;;;7.51;94.23
11682;BME280;5897;42.640;23.310;2022-12-07T00:06:16;93882.31;;;7.52;94.05
11682;BME280;5897;42.640;23.310;2022-12-07T00:08:43;93879.63;;;7.52;93.96
11682;BME280;5897;42.640;23.310;2022-12-07T00:11:11;93876.66;;;7.47;93.90
11682;BME280;5897;42.640;23.310;2022-12-07T00:13:39;93872.03;;;7.47;94.60
11682;BME280;5897;42.640;23.310;2022-12-07T00:16:07;93867.78;;;7.50;94.19
11682;BME280;5897;42.640;23.310;2022-12-07T00:18:35;93868.81;;;7.56;93.50
11682;BME280;5897;42.640;23.310;2022-12-07T00:21:04;93867.38;;;7.51;93.46
11682;BME280;5897;42.640;23.310;2022-12-07T00:23:31;93864.69;;;7.51;93.84
11682;BME280;5897;42.640;23.310;2022-12-07T00:26:04;93853.00;;;7.38;94.11
11682;BME280;5897;42.640;23.310;2022-12-07T00:28:31;93862.13;;;7.44;94.16
11682;BME280;5897;42.640;23.310;2022-12-07T00:31:01;93865.97;;;7.43;94.28
11682;BME280;5897;42.640;23.310;2022-12-07T00:33:28;93871.41;;;7.40;94.74
11682;BME280;5897;42.640;23.310;2022-12-07T00:35:55;93872.47;;;7.46;94.45
11682;BME280;5897;42.640;23.310;2022-12-07T00:38:24;93874.25;;;7.52;93.56
11682;BME280;5897;42.640;23.310;2022-12-07T00:40:55;93861.50;;;7.33;94.15
11682;BME280;5897;42.640;23.310;2022-12-07T00:43:22;93863.38;;;7.36;94.30
11682;BME280;5897;42.640;23.310;2022-12-07T00:45:49;93860.34;;;7.34;95.04
11682;BME280;5897;42.640;23.310;2022-12-07T00:48:15;93861.09;;;7.35;95.69
11682;BME280;5897;42.640;23.310;2022-12-07T00:50:42;93862.69;;;7.32;95.97
11682;BME280;5897;42.640;23.310;2022-12-07T00:53:09;93857.53;;;7.41;96.00
11682;BME280;5897;42.640;23.310;2022-12-07T00:55:37;93863.84;;;7.31;96.36
11682;BME280;5897;42.640;23.310;2022-12-07T00:58:04;93871.63;;;7.49;95.75
11682;BME280;5897;42.640;23.310;2022-12-07T01:00:31;93863.75;;;7.38;95.79
11682;BME280;5897;42.640;23.310;2022-12-07T01:02:58;93869.84;;;7.42;95.54
11682;BME280;5897;42.640;23.310;2022-12-07T01:05:25;93863.94;;;7.24;96.61
11682;BME280;5897;42.640;23.310;2022-12-07T01:07:52;93859.78;;;7.20;96.64
11682;BME280;5897;42.640;23.310;2022-12-07T01:10:18;93856.44;;;7.12;98.05
11682;BME280;5897;42.640;23.310;2022-12-07T01:12:47;93854.81;;;7.18;98.23
11682;BME280;5897;42.640;23.310;2022-12-07T01:15:14;93843.88;;;7.06;98.57
11682;BME280;5897;42.640;23.310;2022-12-07T01:17:41;93854.69;;;7.29;97.71
11682;BME280;5897;42.640;23.310;2022-12-07T01:20:08;93842.88;;;7.23;97.54
11682;BME280;5897;42.640;23.310;2022-12-07T01:22:36;93856.00;;;7.17;98.51
11682;BME280;5897;42.640;23.310;2022-12-07T01:25:04;93845.50;;;7.26;98.91
11682;BME280;5897;42.640;23.310;2022-12-07T01:27:32;93846.66;;;7.25;98.54
11682;BME280;5897;42.640;23.310;2022-12-07T01:30:01;93835.41;;;7.34;98.48
11682;BME280;5897;42.640;23.310;2022-12-07T01:32:28;93839.69;;;7.31;98.62
11682;BME280;5897;42.640;23.310;2022-12-07T01:34:55;93838.09;;;7.34;98.06
11682;BME280;5897;42.640;23.310;2022-12-07T01:37:22;93844.56;;;7.36;97.22
11682;BME280;5897;42.640;23.310;2022-12-07T01:39:50;93823.28;;;7.22;96.57
11682;BME280;5897;42.640;23.310;2022-12-07T01:42:17;93845.00;;;7.35;96.74
11682;BME280;5897;42.640;23.310;2022-12-07T01:47:56;93837.84;;;7.25;97.16
11682;BME280;5897;42.640;23.310;2022-12-07T01:50:26;93842.44;;;7.24;96.68
11682;BME280;5897;42.640;23.310;2022-12-07T01:52:59;93838.25;;;7.23;96.92
11682;BME280;5897;42.640;23.310;2022-12-07T01:55:27;93834.84;;;7.19;97.42
11682;BME280;5897;42.640;23.310;2022-12-07T01:57:55;93830.34;;;7.13;97.73
11682;BME280;5897;42.640;23.310;2022-12-07T02:00:23;93820.34;;;7.13;97.73
11682;BME280;5897;42.640;23.310;2022-12-07T02:02:54;93823.03;;;7.13;98.10
11682;BME280;5897;42.640;23.310;2022-12-07T02:05:23;93816.81;;;7.20;98.39
11682;BME280;5897;42.640;23.310;2022-12-07T02:07:52;93815.34;;;7.15;98.42
11682;BME280;5897;42.640;23.310;2022-12-07T02:10:22;93818.72;;;7.19;98.47
11682;BME280;5897;42.640;23.310;2022-12-07T02:12:51;93810.19;;;7.24;97.95
11682;BME280;5897;42.640;23.310;2022-12-07T02:15:20;93825.19;;;7.25;97.86
11682;BME280;5897;42.640;23.310;2022-12-07T02:17:55;93831.19;;;7.33;97.52
11682;BME280;5897;42.640;23.310;2022-12-07T02:20:29;93825.81;;;7.33;96.71
11682;BME280;5897;42.640;23.310;2022-12-07T02:23:23;93825.41;;;7.34;97.24
11682;BME280;5897;42.640;23.310;2022-12-07T02:26:20;93823.19;;;7.29;96.50
11682;BME280;5897;42.640;23.310;2022-12-07T02:29:10;93828.38;;;7.17;96.52
11682;BME280;5897;42.640;23.310;2022-12-07T02:31:43;93813.84;;;7.11;96.95
11682;BME280;5897;42.640;23.310;2022-12-07T02:34:18;93814.38;;;7.02;97.80
11682;BME280;5897;42.640;23.310;2022-12-07T02:36:52;93809.66;;;7.10;97.02
11682;BME280;5897;42.640;23.310;2022-12-07T02:39:25;93807.38;;;6.82;98.34
11682;BME280;5897;42.640;23.310;2022-12-07T02:41:57;93811.69;;;6.76;99.67
11682;BME280;5897;42.640;23.310;2022-12-07T02:44:29;93809.44;;;6.74;100.00
11682;BME280;5897;42.640;23.310;2022-12-07T02:47:01;93801.81;;;6.69;100.00
11682;BME280;5897;42.640;23.310;2022-12-07T02:49:30;93803.56;;;6.79;100.00
11682;BME280;5897;42.640;23.310;2022-12-07T02:51:57;93808.50;;;6.84;99.82
11682;BME280;5897;42.640;23.310;2022-12-07T02:54:23;93804.69;;;6.82;99.69
11682;BME280;5897;42.640;23.310;2022-12-07T02:56:53;93792.03;;;6.82;98.72
11682;BME280;5897;42.640;23.310;2022-12-07T02:59:32;93798.59;;;6.81;98.71
11682;BME280;5897;42.640;23.310;2022-12-07T03:02:15;93797.00;;;6.84;99.55
11682;BME280;5897;42.640;23.310;2022-12-07T03:04:50;93792.88;;;7.02;96.57
11682;BME280;5897;42.640;23.310;2022-12-07T03:07:26;93791.53;;;6.91;96.40
11682;BME280;5897;42.640;23.310;2022-12-07T03:10:02;93792.25;;;6.68;97.50
11682;BME280;5897;42.640;23.310;2022-12-07T03:12:31;93761.59;;;6.66;97.37
11682;BME280;5897;42.640;23.310;2022-12-07T03:15:07;93776.09;;;6.72;97.97
11682;BME280;5897;42.640;23.310;2022-12-07T03:17:38;93780.06;;;6.60;98.22
11682;BME280;5897;42.640;23.310;2022-12-07T03:20:09;93786.22;;;6.61;98.50
11682;BME280;5897;42.640;23.310;2022-12-07T03:22:38;93786.34;;;6.50;99.89
11682;BME280;5897;42.640;23.310;2022-12-07T03:25:09;93783.94;;;6.59;99.74
11682;BME280;5897;42.640;23.310;2022-12-07T03:27:41;93788.56;;;6.55;100.00
11682;BME280;5897;42.640;23.310;2022-12-07T03:30:13;93791.97;;;6.59;99.62
11682;BME280;5897;42.640;23.310;2022-12-07T03:32:44;93790.91;;;6.53;98.45
11682;BME280;5897;42.640;23.310;2022-12-07T03:35:16;93796.94;;;6.61;98.72
11682;BME280;5897;42.640;23.310;2022-12-07T03:37:48;93790.38;;;6.65;98.84
11682;BME280;5897;42.640;23.310;2022-12-07T03:40:21;93780.91;;;6.57;99.00
11682;BME280;5897;42.640;23.310;2022-12-07T03:42:50;93783.94;;;6.59;99.33
11682;BME280;5897;42.640;23.310;2022-12-07T03:45:22;93789.91;;;6.70;98.59
11682;BME280;5897;42.640;23.310;2022-12-07T03:47:59;93794.66;;;6.59;98.42
11682;BME280;5897;42.640;23.310;2022-12-07T03:50:37;93785.16;;;6.55;99.04
11682;BME280;5897;42.640;23.310;2022-12-07T03:53:12;93787.34;;;6.63;98.38
11682;BME280;5897;42.640;23.310;2022-12-07T03:55:43;93788.47;;;6.62;97.63
11682;BME280;5897;42.640;23.310;2022-12-07T03:58:12;93774.38;;;6.58;98.36
11682;BME280;5897;42.640;23.310;2022-12-07T04:00:42;93770.63;;;6.52;98.03
11682;BME280;5897;42.640;23.310;2022-12-07T04:03:10;93775.47;;;6.61;98.02
11682;BME280;5897;42.640;23.310;2022-12-07T04:05:38;93778.84;;;6.68;97.67
11682;BME280;5897;42.640;23.310;2022-12-07T04:08:05;93788.69;;;6.75;96.88
11682;BME280;5897;42.640;23.310;2022-12-07T04:10:32;93764.78;;;6.57;97.51
11682;BME280;5897;42.640;23.310;2022-12-07T04:12:59;93781.84;;;6.70;97.32
11682;BME280;5897;42.640;23.310;2022-12-07T04:15:26;93783.38;;;6.71;97.05
11682;BME280;5897;42.640;23.310;2022-12-07T04:17:54;93783.09;;;6.62;97.21
11682;BME280;5897;42.640;23.310;2022-12-07T04:20:21;93771.00;;;6.77;96.83
11682;BME280;5897;42.640;23.310;2022-12-07T04:22:48;93777.72;;;6.66;97.61
11682;BME280;5897;42.640;23.310;2022-12-07T04:25:15;93778.50;;;6.63;98.06
11682;BME280;5897;42.640;23.310;2022-12-07T04:27:41;93780.47;;;6.59;97.89
11682;BME280;5897;42.640;23.310;2022-12-07T04:30:09;93779.78;;;6.55;98.22
11682;BME280;5897;42.640;23.310;2022-12-07T04:32:36;93785.38;;;6.64;98.02
11682;BME280;5897;42.640;23.310;2022-12-07T04:35:05;93788.06;;;6.64;97.88
11682;BME280;5897;42.640;23.310;2022-12-07T04:37:32;93784.38;;;6.54;98.35
11682;BME280;5897;42.640;23.310;2022-12-07T04:39:59;93783.59;;;6.57;98.52
11682;BME280;5897;42.640;23.310;2022-12-07T04:42:25;93790.47;;;6.58;98.08
11682;BME280;5897;42.640;23.310;2022-12-07T04:44:52;93795.16;;;6.51;98.10
11682;BME280;5897;42.640;23.310;2022-12-07T04:47:19;93787.41;;;6.56;97.23
11682;BME280;5897;42.640;23.310;2022-12-07T04:49:46;93793.59;;;6.53;97.82
11682;BME280;5897;42.640;23.310;2022-12-07T04:52:14;93793.25;;;6.51;97.98
11682;BME280;5897;42.640;23.310;2022-12-07T04:54:41;93799.34;;;6.52;98.24
11682;BME280;5897;42.640;23.310;2022-12-07T04:57:08;93788.22;;;6.53;97.60
11682;BME280;5897;42.640;23.310;2022-12-07T04:59:34;93791.41;;;6.45;97.75
11682;BME280;5897;42.640;23.310;2022-12-07T05:02:01;93792.56;;;6.44;97.66
11682;BME280;5897;42.640;23.310;2022-12-07T05:04:28;93789.84;;;6.47;98.39
11682;BME280;5897;42.640;23.310;2022-12-07T05:06:55;93788.63;;;6.52;97.58
11682;BME280;5897;42.640;23.310;2022-12-07T05:09:23;93787.22;;;6.44;96.84
11682;BME280;5897;42.640;23.310;2022-12-07T05:11:50;93793.41;;;6.37;97.22
11682;BME280;5897;42.640;23.310;2022-12-07T05:14:18;93800.69;;;6.37;97.71
11682;BME280;5897;42.640;23.310;2022-12-07T05:16:47;93799.41;;;6.48;96.94
11682;BME280;5897;42.640;23.310;2022-12-07T05:19:14;93801.38;;;6.44;96.01
11682;BME280;5897;42.640;23.310;2022-12-07T05:21:41;93809.03;;;6.46;96.69
11682;BME280;5897;42.640;23.310;2022-12-07T05:24:10;93807.19;;;6.39;97.86
11682;BME280;5897;42.640;23.310;2022-12-07T05:26:39;93797.31;;;6.33;100.00
11682;BME280;5897;42.640;23.310;2022-12-07T05:29:06;93791.81;;;6.43;100.00
11682;BME280;5897;42.640;23.310;2022-12-07T05:31:32;93794.63;;;6.33;100.00
11682;BME280;5897;42.640;23.310;2022-12-07T05:33:59;93801.06;;;6.39;100.00
11682;BME280;5897;42.640;23.310;2022-12-07T05:36:26;93803.41;;;6.33;100.00
11682;BME280;5897;42.640;23.310;2022-12-07T05:38:56;93791.47;;;6.41;100.00
11682;BME280;5897;42.640;23.310;2022-12-07T05:41:23;93782.22;;;6.42;100.00
11682;BME280;5897;42.640;23.310;2022-12-07T05:44:09;93771.78;;;6.51;100.00
11682;BME280;5897;42.640;23.310;2022-12-07T05:46:36;93771.31;;;6.56;100.00
11682;BME280;5897;42.640;23.310;2022-12-07T05:49:02;93775.53;;;6.57;100.00
11682;BME280;5897;42.640;23.310;2022-12-07T05:51:29;93770.06;;;6.64;100.00
11682;BME280;5897;42.640;23.310;2022-12-07T05:53:56;93771.56;;;6.65;100.00
11682;BME280;5897;42.640;23.310;2022-12-07T05:56:23;93778.78;;;6.72;99.39
11682;BME280;5897;42.640;23.310;2022-12-07T05:58:50;93786.31;;;6.80;98.52
11682;BME280;5897;42.640;23.310;2022-12-07T06:01:35;93784.16;;;6.72;100.00
11682;BME280;5897;42.640;23.310;2022-12-07T06:04:02;93779.06;;;6.77;99.57
11682;BME280;5897;42.640;23.310;2022-12-07T06:06:29;93777.50;;;6.80;99.03
11682;BME280;5897;42.640;23.310;2022-12-07T06:08:56;93769.28;;;6.90;96.96
11682;BME280;5897;42.640;23.310;2022-12-07T06:11:23;93772.06;;;6.83;97.58
11682;BME280;5897;42.640;23.310;2022-12-07T06:14:07;93771.47;;;6.72;98.62
11682;BME280;5897;42.640;23.310;2022-12-07T06:16:33;93777.91;;;6.78;99.06
11682;BME280;5897;42.640;23.310;2022-12-07T06:19:02;93781.75;;;6.77;98.83
11682;BME280;5897;42.640;23.310;2022-12-07T06:21:28;93787.53;;;6.76;99.04
11682;BME280;5897;42.640;23.310;2022-12-07T06:23:55;93794.00;;;6.78;100.00
11682;BME280;5897;42.640;23.310;2022-12-07T06:26:22;93793.41;;;6.94;98.84
11682;BME280;5897;42.640;23.310;2022-12-07T06:28:49;93794.13;;;6.98;98.74
11682;BME280;5897;42.640;23.310;2022-12-07T06:31:16;93799.19;;;6.92;99.34
11682;BME280;5897;42.640;23.310;2022-12-07T06:33:42;93796.84;;;6.94;99.70
11682;BME280;5897;42.640;23.310;2022-12-07T06:36:11;93792.19;;;6.98;99.92
11682;BME280;5897;42.640;23.310;2022-12-07T06:38:38;93797.47;;;7.05;99.86
11682;BME280;5897;42.640;23.310;2022-12-07T06:41:05;93805.91;;;7.04;100.00
11682;BME280;5897;42.640;23.310;2022-12-07T06:43:32;93795.13;;;7.07;100.00
11682;BME280;5897;42.640;23.310;2022-12-07T06:45:59;93799.63;;;7.14;99.49
11682;BME280;5897;42.640;23.310;2022-12-07T06:48:26;93799.69;;;7.10;99.95
11682;BME280;5897;42.640;23.310;2022-12-07T06:50:52;93798.16;;;7.09;99.71
11682;BME280;5897;42.640;23.310;2022-12-07T06:53:20;93799.63;;;7.14;99.93
11682;BME280;5897;42.640;23.310;2022-12-07T06:55:47;93800.09;;;7.09;100.00
11682;BME280;5897;42.640;23.310;2022-12-07T06:58:14;93804.19;;;7.17;99.53
11682;BME280;5897;42.640;23.310;2022-12-07T07:00:41;93812.53;;;7.22;98.87
11682;BME280;5897;42.640;23.310;2022-12-07T07:03:08;93805.19;;;7.26;98.85
11682;BME280;5897;42.640;23.310;2022-12-07T07:05:35;93816.94;;;7.36;98.66
11682;BME280;5897;42.640;23.310;2022-12-07T07:08:01;93809.34;;;7.31;97.68
11682;BME280;5897;42.640;23.310;2022-12-07T07:10:30;93806.63;;;7.08;99.65
11682;BME280;5897;42.640;23.310;2022-12-07T07:12:57;93807.84;;;7.03;99.97
11682;BME280;5897;42.640;23.310;2022-12-07T07:15:24;93796.97;;;6.87;100.00
11682;BME280;5897;42.640;23.310;2022-12-07T07:17:51;93799.69;;;7.10;100.00
11682;BME280;5897;42.640;23.310;2022-12-07T07:20:17;93800.50;;;7.07;100.00
11682;BME280;5897;42.640;23.310;2022-12-07T07:22:44;93801.25;;;7.08;100.00
11682;BME280;5897;42.640;23.310;2022-12-07T07:25:11;93799.69;;;7.10;100.00
11682;BME280;5897;42.640;23.310;2022-12-07T07:27:39;93812.44;;;7.29;100.00
11682;BME280;5897;42.640;23.310;2022-12-07T07:30:07;93807.97;;;7.19;100.00
11682;BME280;5897;42.640;23.310;2022-12-07T07:32:35;93818.56;;;7.30;100.00
11682;BME280;5897;42.640;23.310;2022-12-07T07:35:01;93814.06;;;7.23;100.00
11682;BME280;5897;42.640;23.310;2022-12-07T07:37:28;93819.16;;;7.18;100.00
11682;BME280;5897;42.640;23.310;2022-12-07T07:39:55;93819.09;;;7.21;100.00
11682;BME280;5897;42.640;23.310;2022-12-07T07:42:22;93816.81;;;7.20;100.00
11682;BME280;5897;42.640;23.310;2022-12-07T07:44:50;93820.13;;;7.04;100.00
11682;BME280;5897;42.640;23.310;2022-12-07T07:47:17;93814.53;;;7.18;100.00
11682;BME280;5897;42.640;23.310;2022-12-07T07:49:43;93813.91;;;7.34;100.00
11682;BME280;5897;42.640;23.310;2022-12-07T07:52:10;93817.94;;;7.45;99.97
11682;BME280;5897;42.640;23.310;2022-12-07T07:54:37;93814.66;;;7.57;99.00
11682;BME280;5897;42.640;23.310;2022-12-07T07:57:04;93812.88;;;7.51;96.09
11682;BME280;5897;42.640;23.310;2022-12-07T07:59:30;93819.91;;;7.41;97.91
11682;BME280;5897;42.640;23.310;2022-12-07T08:01:58;93814.47;;;7.45;98.43
11682;BME280;5897;42.640;23.310;2022-12-07T08:04:25;93817.41;;;7.54;98.08
11682;BME280;5897;42.640;23.310;2022-12-07T08:06:52;93815.38;;;7.61;97.97
11682;BME280;5897;42.640;23.310;2022-12-07T08:09:19;93813.59;;;7.74;95.63
11682;BME280;5897;42.640;23.310;2022-12-07T08:11:46;93812.09;;;7.73;94.65
11682;BME280;5897;42.640;23.310;2022-12-07T08:14:12;93808.81;;;7.62;96.00
11682;BME280;5897;42.640;23.310;2022-12-07T08:16:39;93814.38;;;7.75;95.86
11682;BME280;5897;42.640;23.310;2022-12-07T08:19:07;93808.22;;;7.74;95.51
11682;BME280;5897;42.640;23.310;2022-12-07T08:21:34;93814.72;;;7.77;94.46
11682;BME280;5897;42.640;23.310;2022-12-07T08:24:01;93820.22;;;7.70;93.57
11682;BME280;5897;42.640;23.310;2022-12-07T08:26:28;93812.88;;;7.74;95.25
11682;BME280;5897;42.640;23.310;2022-12-07T08:28:54;93808.09;;;7.81;95.05
11682;BME280;5897;42.640;23.310;2022-12-07T08:31:21;93809.09;;;7.91;95.02
11682;BME280;5897;42.640;23.310;2022-12-07T08:33:48;93803.19;;;7.76;95.84
11682;BME280;5897;42.640;23.310;2022-12-07T08:36:17;93813.38;;;7.88;95.86
11682;BME280;5897;42.640;23.310;2022-12-07T08:38:44;93809.28;;;7.80;95.88
11682;BME280;5897;42.640;23.310;2022-12-07T08:41:11;93809.50;;;7.89;95.99
11682;BME280;5897;42.640;23.310;2022-12-07T08:43:38;93805.03;;;8.02;98.67
11682;BME280;5897;42.640;23.310;2022-12-07T08:46:09;93806.16;;;8.05;95.03
11682;BME280;5897;42.640;23.310;2022-12-07T08:48:40;93800.13;;;7.97;95.77
11682;BME280;5897;42.640;23.310;2022-12-07T08:51:09;93803.28;;;7.92;96.42
11682;BME280;5897;42.640;23.310;2022-12-07T08:53:38;93802.81;;;7.97;96.98
11682;BME280;5897;42.640;23.310;2022-12-07T08:56:06;93792.34;;;8.03;96.32
11682;BME280;5897;42.640;23.310;2022-12-07T08:58:35;93795.66;;;8.10;94.07
11682;BME280;5897;42.640;23.310;2022-12-07T09:01:03;93792.28;;;8.06;94.66
11682;BME280;5897;42.640;23.310;2022-12-07T09:03:30;93791.75;;;8.15;94.79
11682;BME280;5897;42.640;23.310;2022-12-07T09:05:57;93790.22;;;8.14;94.71
11682;BME280;5897;42.640;23.310;2022-12-07T09:08:33;93790.50;;;8.19;94.70
11682;BME280;5897;42.640;23.310;2022-12-07T09:11:02;93794.59;;;8.27;94.22
11682;BME280;5897;42.640;23.310;2022-12-07T09:13:29;93785.75;;;8.46;92.91
11682;BME280;5897;42.640;23.310;2022-12-07T09:15:56;93776.56;;;8.44;92.34
11682;BME280;5897;42.640;23.310;2022-12-07T09:18:23;93770.72;;;8.49;90.92
11682;BME280;5897;42.640;23.310;2022-12-07T09:20:50;93767.59;;;8.50;91.58
11682;BME280;5897;42.640;23.310;2022-12-07T09:23:17;93763.66;;;8.55;91.80
11682;BME280;5897;42.640;23.310;2022-12-07T09:25:44;93774.03;;;8.56;91.44
11682;BME280;5897;42.640;23.310;2022-12-07T09:28:12;93774.19;;;8.65;91.56
11682;BME280;5897;42.640;23.310;2022-12-07T09:30:39;93776.47;;;8.67;91.59
11682;BME280;5897;42.640;23.310;2022-12-07T09:33:11;93766.03;;;8.69;92.08
11682;BME280;5897;42.640;23.310;2022-12-07T09:35:38;93758.91;;;8.78;91.15
11682;BME280;5897;42.640;23.310;2022-12-07T09:38:04;93753.28;;;8.89;89.54
11682;BME280;5897;42.640;23.310;2022-12-07T09:40:33;93746.81;;;9.02;88.47
11682;BME280;5897;42.640;23.310;2022-12-07T09:43:00;93752.72;;;9.13;88.38
11682;BME280;5897;42.640;23.310;2022-12-07T09:45:32;93751.53;;;8.98;89.52
11682;BME280;5897;42.640;23.310;2022-12-07T09:48:00;93748.66;;;9.05;89.87
11682;BME280;5897;42.640;23.310;2022-12-07T09:50:29;93748.84;;;9.14;89.75
11682;BME280;5897;42.640;23.310;2022-12-07T09:53:05;93749.25;;;9.13;89.53
11682;BME280;5897;42.640;23.310;2022-12-07T09:55:35;93740.47;;;8.93;90.50
11682;BME280;5897;42.640;23.310;2022-12-07T09:58:02;93738.91;;;9.11;89.28
11682;BME280;5897;42.640;23.310;2022-12-07T10:00:31;93733.41;;;9.15;89.24
11682;BME280;5897;42.640;23.310;2022-12-07T10:02:59;93728.19;;;9.56;87.28
11682;BME280;5897;42.640;23.310;2022-12-07T10:05:31;93731.41;;;9.51;88.35
11682;BME280;5897;42.640;23.310;2022-12-07T10:07:58;93727.84;;;9.54;87.84
11682;BME280;5897;42.640;23.310;2022-12-07T10:10:28;93728.09;;;9.59;87.66
11682;BME280;5897;42.640;23.310;2022-12-07T10:12:58;93732.81;;;9.55;88.70
11682;BME280;5897;42.640;23.310;2022-12-07T10:15:45;93725.78;;;9.74;89.26
11682;BME280;5897;42.640;23.310;2022-12-07T10:18:21;93729.88;;;9.94;87.20
11682;BME280;5897;42.640;23.310;2022-12-07T10:21:01;93728.03;;;10.32;84.36
11682;BME280;5897;42.640;23.310;2022-12-07T10:23:28;93715.63;;;10.35;83.20
11682;BME280;5897;42.640;23.310;2022-12-07T10:25:55;93712.50;;;10.36;83.49
11682;BME280;5897;42.640;23.310;2022-12-07T10:28:22;93712.13;;;10.50;82.77
11682;BME280;5897;42.640;23.310;2022-12-07T10:30:54;93697.09;;;10.62;81.97
11682;BME280;5897;42.640;23.310;2022-12-07T10:33:35;93688.69;;;10.72;80.73
11682;BME280;5897;42.640;23.310;2022-12-07T10:36:19;93692.03;;;10.89;80.24
11682;BME280;5897;42.640;23.310;2022-12-07T10:38:48;93685.97;;;10.97;80.49
11682;BME280;5897;42.640;23.310;2022-12-07T10:41:17;93689.31;;;10.89;81.04
11682;BME280;5897;42.640;23.310;2022-12-07T10:43:52;93688.56;;;10.88;81.63
11682;BME280;5897;42.640;23.310;2022-12-07T10:46:37;93684.69;;;10.89;82.86
11682;BME280;5897;42.640;23.310;2022-12-07T10:49:25;93677.09;;;11.09;86.10
11682;BME280;5897;42.640;23.310;2022-12-07T10:52:02;93668.00;;;11.62;84.77
11682;BME280;5897;42.640;23.310;2022-12-07T10:54:40;93660.53;;;12.61;82.45
11682;BME280;5897;42.640;23.310;2022-12-07T10:57:25;93663.84;;;13.80;77.43
11682;BME280;5897;42.640;23.310;2022-12-07T11:00:04;93652.28;;;14.98;68.63
11682;BME280;5897;42.640;23.310;2022-12-07T11:02:53;93648.13;;;16.06;64.92
11682;BME280;5897;42.640;23.310;2022-12-07T11:05:28;93645.75;;;16.51;59.35
11682;BME280;5897;42.640;23.310;2022-12-07T11:08:03;93643.69;;;17.24;56.72
11682;BME280;5897;42.640;23.310;2022-12-07T11:10:40;93647.59;;;17.92;50.15
11682;BME280;5897;42.640;23.310;2022-12-07T11:13:28;93648.03;;;18.82;49.18
11682;BME280;5897;42.640;23.310;2022-12-07T11:16:09;93628.50;;;19.31;46.22
11682;BME280;5897;42.640;23.310;2022-12-07T11:18:48;93632.53;;;19.83;42.91
11682;BME280;5897;42.640;23.310;2022-12-07T11:21:22;93632.28;;;19.39;43.20
11682;BME280;5897;42.640;23.310;2022-12-07T11:23:57;93626.91;;;18.88;44.23
11682;BME280;5897;42.640;23.310;2022-12-07T11:26:39;93628.91;;;18.87;44.63
11682;BME280;5897;42.640;23.310;2022-12-07T11:29:30;93619.50;;;18.94;43.91
11682;BME280;5897;42.640;23.310;2022-12-07T11:32:13;93612.56;;;19.29;44.38
11682;BME280;5897;42.640;23.310;2022-12-07T11:34:54;93603.03;;;19.67;43.11
11682;BME280;5897;42.640;23.310;2022-12-07T11:37:28;93602.16;;;20.03;42.06
11682;BME280;5897;42.640;23.310;2022-12-07T11:40:00;93605.53;;;20.34;41.76
11682;BME280;5897;42.640;23.310;2022-12-07T11:42:31;93593.06;;;20.61;40.43
11682;BME280;5897;42.640;23.310;2022-12-07T11:45:02;93598.63;;;20.88;40.62
11682;BME280;5897;42.640;23.310;2022-12-07T11:47:39;93585.34;;;21.31;38.79
11682;BME280;5897;42.640;23.310;2022-12-07T11:50:21;93592.81;;;21.30;39.55
11682;BME280;5897;42.640;23.310;2022-12-07T11:52:53;93594.50;;;21.61;38.17
11682;BME280;5897;42.640;23.310;2022-12-07T11:55:27;93597.25;;;21.61;37.03
11682;BME280;5897;42.640;23.310;2022-12-07T11:58:03;93589.25;;;21.52;36.50
11682;BME280;5897;42.640;23.310;2022-12-07T12:00:32;93577.06;;;21.42;36.59
11682;BME280;5897;42.640;23.310;2022-12-07T12:03:02;93581.97;;;21.65;36.42
11682;BME280;5897;42.640;23.310;2022-12-07T12:05:32;93573.00;;;21.76;36.14
11682;BME280;5897;42.640;23.310;2022-12-07T12:08:04;93570.06;;;22.14;36.02
11682;BME280;5897;42.640;23.310;2022-12-07T12:10:46;93582.91;;;22.41;35.21
11682;BME280;5897;42.640;23.310;2022-12-07T12:16:21;93561.97;;;22.68;34.09
11682;BME280;5897;42.640;23.310;2022-12-07T12:19:03;93556.28;;;22.55;33.87
11682;BME280;5897;42.640;23.310;2022-12-07T12:21:39;93559.25;;;22.62;33.83
11682;BME280;5897;42.640;23.310;2022-12-07T12:24:11;93557.69;;;22.32;34.65
11682;BME280;5897;42.640;23.310;2022-12-07T12:26:48;93550.69;;;22.31;34.59
11682;BME280;5897;42.640;23.310;2022-12-07T12:29:23;93554.22;;;22.26;34.65
11682;BME280;5897;42.640;23.310;2022-12-07T12:32:13;93535.56;;;22.08;34.55
11682;BME280;5897;42.640;23.310;2022-12-07T12:34:42;93530.94;;;21.86;34.68
11682;BME280;5897;42.640;23.310;2022-12-07T12:37:42;93533.91;;;21.26;35.95
11682;BME280;5897;42.640;23.310;2022-12-07T12:43:40;93538.34;;;21.40;36.09
11682;BME280;5897;42.640;23.310;2022-12-07T12:46:38;93534.97;;;21.80;34.71
11682;BME280;5897;42.640;23.310;2022-12-07T12:49:32;93535.66;;;21.91;34.78
11682;BME280;5897;42.640;23.310;2022-12-07T12:52:00;93537.91;;;21.93;34.73
11682;BME280;5897;42.640;23.310;2022-12-07T12:54:32;93533.19;;;21.88;34.07
11682;BME280;5897;42.640;23.310;2022-12-07T12:57:04;93535.91;;;21.20;34.98
11682;BME280;5897;42.640;23.310;2022-12-07T12:59:35;93537.19;;;20.80;35.84
11682;BME280;5897;42.640;23.310;2022-12-07T13:02:15;93541.66;;;20.17;37.49
11682;BME280;5897;42.640;23.310;2022-12-07T13:04:52;93543.50;;;19.73;38.33
11682;BME280;5897;42.640;23.310;2022-12-07T13:07:49;93539.00;;;19.11;39.45
11682;BME280;5897;42.640;23.310;2022-12-07T13:10:27;93532.09;;;18.85;40.55
11682;BME280;5897;42.640;23.310;2022-12-07T13:12:58;93530.75;;;18.38;41.42
11682;BME280;5897;42.640;23.310;2022-12-07T13:15:33;93541.41;;;18.11;42.36
11682;BME280;5897;42.640;23.310;2022-12-07T13:18:03;93548.75;;;17.74;43.84
11682;BME280;5897;42.640;23.310;2022-12-07T13:20:43;93554.88;;;17.29;45.18
11682;BME280;5897;42.640;23.310;2022-12-07T13:23:12;93547.78;;;17.17;45.38
11682;BME280;5897;42.640;23.310;2022-12-07T13:25:51;93542.03;;;16.95;46.04
11682;BME280;5897;42.640;23.310;2022-12-07T13:28:21;93546.38;;;16.52;47.28
11682;BME280;5897;42.640;23.310;2022-12-07T13:31:00;93545.16;;;16.24;48.06
11682;BME280;5897;42.640;23.310;2022-12-07T13:33:30;93536.97;;;15.95;48.58
11682;BME280;5897;42.640;23.310;2022-12-07T13:35:57;93540.44;;;15.81;49.35